Brookhaven, New York
Current Conditions -  °F | °C
As of 6:56 PM on Thursday 27 Nov 2014 (Local Time) from KHWV Reporting Station
Overcast Overcast  
Wind Chill: 32°   Ceiling: 2000
Heat Index: 37°   Visibility: 10mi
Dew Point: 30°   Wind: 7mph
Humidity: 76%   Direction: 310°NW
Pressure: 30.02"   Gusts: NA
Location:  40.78°N, 72.91°W
Report Text: KHWV 272356Z AUTO 31006KT 10SM OVC020 03/M01 A3002 RMK AO2 SLP166 60000 T00281011 10033 20022 53011 TSNO $
Loading
Personal Weather Stations






























Interactive Weather Map New forecast layout! Learn more

10-Day Weather Forecast

Advertisements
Track Severe Weather on mobile